Details for WeGo Airways at EGLC




Go Back


Latest METAR
Local Time

EGLC 241320Z AUTO 08020KT 9999 NCD 05/M05 Q1022

24/02/2018, 13:37:29

Description
Results
WeGo Airways Logo
Number of Pilots based at EGLC
0 Pilots Based here
Number of WeGo Airways Flights Departed from EGLC
2 Flights Departed
Number of WeGo Airways Flights Arrived at EGLC
2 Flights Arrived
Number of WeGo Airways Schedules Departing from EGLC
0 Schedules
Number of WeGo Airways Schedules Arriving at EGLC
0 Schedules
Number of WeGo Airways Schedules Departing from EGLC availible today
0 Schedules Today
Number of WeGo Airways Schedules Arriving at EGLC availible today
0 Schedules Today
Average Landing Rate at EGLC
-430 fpm
WeGo Airways Average Landing Rate at EGLC
-520 fpm
Total Fuel Purchased at EGLC by WeGo Airways
31.30 kgs / 69.00 lbs

Pilots Based at EGLC


Pilot ID
Pilot Name
Pilot Rank
No. of Flights
No. of Flying Hours
There are no pilots assigned to this hub!   Will you be the first?
Content